»·PEaware :: N8448K KPSP-KEMT

N8448K :: KPSP-KEMT

FLIGHT INFORMATION

Flight Status: Arrived
Operator: Privately registered:
United States
More flights under this callsign
Pilot: Ryan B. (29)
Aircraft: Unknown
(LEG2)
More flights by this aircraft type
Origin: KPSP Palm Springs Intl
United States
Destination: KEMT El Monte
United States
More flights between these airports :: More routes between these airports
Route: +CATH1 PSP V388 PDZ PDZ270/013 RNDAL V363 POM
File this flight plan on PilotEdge
Remarks:
Altitude:
(Current/Filed)
10,000ft
Speed:
(Current/Filed)
234kts
Departed: 21-Jun-20 05:36 PM
Arrived: 21-Jun-20 06:10 PM
Distance/Time
Traveled:
79nm/0:33
Distance/Time
To Go:
Arrived

Flight Plot

Page will automatically refresh every two minutes.

Flight plan parsing failed; only flown route is shown


Map Options




Map Legend


Flown Route
Filed Route
Departure Airport
Arrival Airport
Navaid (VOR, NDB)
Fix

Horizontal Profiles

Position Reports

Time Latitude Longitude Heading Altitude Ground
Speed
21-Jun-20 17:26 33.822481 -116.496004 233 479ft 0kts
21-Jun-20 17:27 33.822481 -116.496004 233 479ft 0kts
21-Jun-20 17:28 33.822481 -116.496004 233 479ft 0kts
21-Jun-20 17:29 33.822481 -116.496004 233 479ft 0kts
21-Jun-20 17:30 33.822481 -116.496004 233 479ft 0kts
21-Jun-20 17:31 33.822473 -116.496016 233 479ft 0kts
21-Jun-20 17:32 33.823222 -116.498044 327 479ft 8kts
21-Jun-20 17:33 33.824671 -116.499326 279 479ft 0kts
21-Jun-20 17:34 33.824595 -116.499624 233 479ft 0kts
21-Jun-20 17:35 33.838251 -116.512246 323 856ft 154kts
21-Jun-20 17:36 33.874794 -116.546322 321 3072ft 174kts
21-Jun-20 17:37 33.916465 -116.560416 47 5358ft 181kts
21-Jun-20 17:38 33.904295 -116.505244 129 7244ft 205kts
21-Jun-20 17:39 33.876601 -116.446359 115 9172ft 207kts
21-Jun-20 17:40 33.849304 -116.380869 117 10005ft 238kts
21-Jun-20 17:41 33.817887 -116.307426 117 9991ft 251kts
21-Jun-20 17:42 33.781340 -116.236502 151 9970ft 251kts
21-Jun-20 17:43 33.735640 -116.274898 279 9968ft 255kts
21-Jun-20 17:44 33.783667 -116.337738 318 9992ft 262kts
21-Jun-20 17:45 33.838359 -116.395794 318 10005ft 263kts
21-Jun-20 17:46 33.879505 -116.466165 287 10007ft 262kts
21-Jun-20 17:47 33.900314 -116.548220 287 10008ft 252kts
21-Jun-20 17:48 33.920628 -116.628467 287 10008ft 250kts
21-Jun-20 17:49 33.940852 -116.708475 287 10046ft 248kts
21-Jun-20 17:50 33.947010 -116.791172 268 10101ft 249kts
21-Jun-20 17:51 33.944303 -116.874293 268 10155ft 248kts
21-Jun-20 17:52 33.941412 -116.957785 268 10169ft 249kts
21-Jun-20 17:53 33.938198 -117.041207 265 10130ft 250kts
21-Jun-20 17:54 33.935113 -117.127699 268 8984ft 266kts
21-Jun-20 17:55 33.932041 -117.218261 267 7877ft 271kts
21-Jun-20 17:56 33.928193 -117.308297 267 6575ft 266kts
21-Jun-20 17:57 33.924665 -117.396300 267 4897ft 260kts
21-Jun-20 17:58 33.921011 -117.478344 266 4004ft 226kts
21-Jun-20 17:59 33.926566 -117.548805 305 4001ft 216kts
21-Jun-20 18:00 33.964754 -117.604783 305 3999ft 215kts
21-Jun-20 18:01 34.000700 -117.662847 304 4005ft 217kts
21-Jun-20 18:02 34.036912 -117.722044 304 4016ft 219kts
21-Jun-20 18:03 34.072482 -117.779759 304 4026ft 201kts
21-Jun-20 18:04 34.080129 -117.840937 272 3718ft 173kts
21-Jun-20 18:05 34.082233 -117.896145 272 3051ft 147kts
21-Jun-20 18:06 34.083918 -117.938768 270 2146ft 120kts
21-Jun-20 18:07 34.086509 -117.977368 266 1367ft 119kts
21-Jun-20 18:08 34.091535 -118.016466 295 902ft 106kts
21-Jun-20 18:09 34.085406 -118.034668 108 296ft 0kts
21-Jun-20 18:10 34.085899 -118.033479 43 296ft 3kts
21-Jun-20 18:11 34.085934 -118.033457 24 296ft 0kts
21-Jun-20 18:12 34.085934 -118.033457 24 296ft 0kts
21-Jun-20 18:13 34.086007 -118.033515 304 296ft 5kts
21-Jun-20 18:14 34.090226 -118.031734 35 296ft 16kts
21-Jun-20 18:15 34.078005 -118.039739 210 815ft 136kts
21-Jun-20 18:16 34.085411 -118.065958 24 1299ft 158kts
21-Jun-20 18:17 34.117089 -118.045926 26 1243ft 146kts

Navigation Log

Ident Type
Flight plan parsing failed, navigation log unavailable